createdAt,value
2018-06-13T00:01:57.691Z,15.20
2018-06-13T00:04:25.966Z,15.20
2018-06-13T00:06:54.217Z,15.20
2018-06-13T00:09:22.478Z,15.10
2018-06-13T00:11:50.739Z,15.20
2018-06-13T00:14:18.949Z,15.20
2018-06-13T00:16:47.187Z,15.20
2018-06-13T00:19:15.395Z,15.20
2018-06-13T00:21:43.654Z,15.10
2018-06-13T00:24:11.888Z,15.20
2018-06-13T00:26:40.983Z,15.20
2018-06-13T00:29:09.243Z,15.20
2018-06-13T00:31:37.475Z,15.20
2018-06-13T00:34:05.691Z,15.20
2018-06-13T00:36:33.912Z,15.20
2018-06-13T00:39:02.171Z,15.10
2018-06-13T00:41:30.368Z,15.20
2018-06-13T00:43:58.611Z,15.20
2018-06-13T00:46:26.930Z,15.20
2018-06-13T00:48:55.242Z,15.20
2018-06-13T00:51:23.543Z,15.10
2018-06-13T00:53:51.782Z,15.00
2018-06-13T00:56:29.403Z,14.90
2018-06-13T00:58:58.116Z,14.90
2018-06-13T01:01:26.340Z,14.90
2018-06-13T01:03:55.033Z,15.00
2018-06-13T01:06:23.391Z,15.00
2018-06-13T01:08:51.650Z,14.90
2018-06-13T01:11:20.193Z,14.90
2018-06-13T01:13:48.498Z,14.80
2018-06-13T01:16:16.903Z,14.90
2018-06-13T01:18:45.158Z,14.80
2018-06-13T01:21:13.415Z,14.90
2018-06-13T01:23:41.646Z,14.80
2018-06-13T01:26:09.976Z,14.80
2018-06-13T01:28:38.251Z,14.80
2018-06-13T01:31:07.152Z,14.90
2018-06-13T01:33:35.490Z,14.80
2018-06-13T01:36:03.755Z,14.80
2018-06-13T01:38:31.972Z,14.80
2018-06-13T01:41:00.464Z,14.80
2018-06-13T01:43:28.698Z,14.80
2018-06-13T01:45:56.908Z,14.70
2018-06-13T01:48:25.158Z,14.60
2018-06-13T01:50:56.701Z,14.60
2018-06-13T01:53:24.955Z,14.60
2018-06-13T01:55:53.261Z,14.60
2018-06-13T01:58:21.460Z,14.50
2018-06-13T02:00:49.763Z,14.50
2018-06-13T02:03:18.241Z,14.50
2018-06-13T02:05:46.600Z,14.50
2018-06-13T02:08:14.931Z,14.50
2018-06-13T02:10:43.218Z,14.50
2018-06-13T02:13:11.479Z,14.50
2018-06-13T02:15:39.754Z,14.50
2018-06-13T02:18:08.077Z,14.50
2018-06-13T02:20:36.300Z,14.50
2018-06-13T02:23:04.931Z,14.50
2018-06-13T02:25:33.165Z,14.50
2018-06-13T02:28:01.348Z,14.50
2018-06-13T02:30:29.579Z,14.40
2018-06-13T02:32:57.860Z,14.30
2018-06-13T02:35:26.115Z,14.30
2018-06-13T02:37:54.884Z,14.30
2018-06-13T02:40:23.831Z,14.30
2018-06-13T02:42:52.067Z,14.20
2018-06-13T02:45:20.326Z,14.20
2018-06-13T02:47:50.310Z,14.20
2018-06-13T02:50:18.570Z,14.20
2018-06-13T02:52:46.794Z,14.20
2018-06-13T02:55:15.025Z,14.20
2018-06-13T02:57:43.349Z,14.10
2018-06-13T03:00:12.130Z,14.10
2018-06-13T03:02:40.344Z,14.10
2018-06-13T03:05:08.572Z,14.00
2018-06-13T03:07:36.793Z,13.90
2018-06-13T03:10:05.090Z,13.90
2018-06-13T03:12:33.331Z,13.90
2018-06-13T03:15:01.555Z,13.80
2018-06-13T03:17:29.800Z,13.80
2018-06-13T03:19:57.993Z,13.90
2018-06-13T03:22:26.340Z,13.80
2018-06-13T03:24:54.584Z,13.80
2018-06-13T03:27:22.826Z,13.80
2018-06-13T03:29:51.100Z,13.70
2018-06-13T03:32:19.386Z,13.70
2018-06-13T03:34:47.656Z,13.60
2018-06-13T03:37:15.928Z,13.50
2018-06-13T03:39:44.473Z,13.40
2018-06-13T03:42:12.736Z,13.30
2018-06-13T03:44:40.943Z,13.20
2018-06-13T03:47:09.196Z,13.20
2018-06-13T03:49:37.410Z,13.10
2018-06-13T03:52:05.771Z,13.20
2018-06-13T03:54:34.074Z,13.10
2018-06-13T03:57:02.458Z,13.20
2018-06-13T03:59:30.737Z,13.10
2018-06-13T04:04:27.658Z,13.20
2018-06-13T04:06:57.087Z,13.30
2018-06-13T04:09:25.388Z,13.50
2018-06-13T04:11:53.687Z,13.60
2018-06-13T04:14:22.242Z,13.60
2018-06-13T04:16:50.547Z,13.70
2018-06-13T04:19:18.810Z,13.80
2018-06-13T04:21:47.054Z,13.90
2018-06-13T04:24:15.758Z,13.90
2018-06-13T04:26:44.653Z,13.90
2018-06-13T04:29:13.089Z,14.00
2018-06-13T04:31:42.245Z,14.00
2018-06-13T04:34:10.492Z,14.10
2018-06-13T04:36:38.742Z,14.10
2018-06-13T04:39:08.974Z,14.10
2018-06-13T04:41:37.215Z,14.20
2018-06-13T04:44:05.466Z,14.40
2018-06-13T04:46:33.697Z,14.70
2018-06-13T04:49:01.975Z,15.30
2018-06-13T04:51:30.160Z,16.00
2018-06-13T04:53:58.439Z,16.50
2018-06-13T04:56:26.663Z,16.80
2018-06-13T04:58:54.936Z,17.20
2018-06-13T05:01:24.248Z,17.30
2018-06-13T05:03:52.970Z,17.30
2018-06-13T05:06:21.237Z,17.30
2018-06-13T05:08:49.888Z,17.80
2018-06-13T05:11:18.085Z,18.30
2018-06-13T05:13:46.359Z,18.40
2018-06-13T05:16:14.550Z,18.50
2018-06-13T05:18:42.784Z,18.60
2018-06-13T05:21:11.012Z,18.40
2018-06-13T05:23:39.203Z,18.20
2018-06-13T05:26:07.480Z,18.10
2018-06-13T05:28:35.870Z,18.30
2018-06-13T05:31:04.115Z,18.50
2018-06-13T05:33:32.375Z,18.80
2018-06-13T05:36:00.612Z,18.60
2018-06-13T05:38:29.252Z,18.90
2018-06-13T05:40:57.480Z,19.30
2018-06-13T05:43:25.862Z,19.20
2018-06-13T05:45:54.072Z,19.40
2018-06-13T05:48:22.326Z,19.20
2018-06-13T05:50:50.943Z,19.40
2018-06-13T05:53:19.154Z,19.60
2018-06-13T05:55:47.374Z,19.70
2018-06-13T05:58:15.603Z,19.80
2018-06-13T06:00:43.940Z,19.40
2018-06-13T06:03:12.201Z,19.20
2018-06-13T06:05:41.491Z,19.00
2018-06-13T06:08:09.759Z,19.20
2018-06-13T06:10:37.969Z,20.00
2018-06-13T06:13:06.216Z,20.30
2018-06-13T06:15:34.445Z,20.60
2018-06-13T06:18:02.708Z,20.70
2018-06-13T06:20:30.940Z,20.50
2018-06-13T06:22:59.155Z,20.30
2018-06-13T06:25:27.423Z,20.10
2018-06-13T06:30:24.819Z,20.40
2018-06-13T06:32:53.192Z,20.80
2018-06-13T06:35:21.443Z,21.00
2018-06-13T06:37:49.702Z,21.20
2018-06-13T06:40:19.003Z,21.20
2018-06-13T06:42:47.211Z,21.30
2018-06-13T06:45:15.462Z,21.40
2018-06-13T06:47:43.739Z,21.40
2018-06-13T06:50:12.264Z,21.10
2018-06-13T06:52:40.520Z,21.30
2018-06-13T06:55:08.807Z,21.60
2018-06-13T06:57:37.261Z,21.60
2018-06-13T07:00:05.792Z,21.60
2018-06-13T07:02:34.086Z,21.80
2018-06-13T07:05:02.516Z,22.70
2018-06-13T07:07:30.692Z,22.40
2018-06-13T07:09:58.953Z,20.80
2018-06-13T07:12:27.224Z,20.10
2018-06-13T07:14:55.435Z,20.10
2018-06-13T07:17:23.820Z,20.10
2018-06-13T07:19:53.319Z,20.70
2018-06-13T07:22:21.645Z,21.10
2018-06-13T07:24:50.220Z,21.10
2018-06-13T07:27:18.526Z,21.40
2018-06-13T07:29:46.737Z,20.80
2018-06-13T07:32:14.937Z,20.80
2018-06-13T07:34:43.188Z,20.40
2018-06-13T07:37:11.548Z,20.00
2018-06-13T07:39:39.771Z,19.90
2018-06-13T07:42:08.036Z,19.70
2018-06-13T07:44:36.287Z,19.60
2018-06-13T07:47:04.575Z,20.10
2018-06-13T07:49:32.801Z,19.80
2018-06-13T07:52:01.292Z,19.20
2018-06-13T07:54:29.843Z,18.90
2018-06-13T07:56:58.084Z,19.10
2018-06-13T07:59:27.025Z,19.20
2018-06-13T08:01:55.267Z,19.20
2018-06-13T08:04:23.771Z,19.10
2018-06-13T08:06:52.044Z,19.20
2018-06-13T08:09:20.280Z,19.40
2018-06-13T08:11:48.597Z,19.20
2018-06-13T08:14:16.868Z,19.00
2018-06-13T08:16:45.148Z,19.00
2018-06-13T08:19:14.261Z,18.90
2018-06-13T08:21:42.532Z,18.90
2018-06-13T08:24:11.292Z,18.40
2018-06-13T08:26:39.580Z,18.20
2018-06-13T08:29:07.772Z,17.90
2018-06-13T08:31:36.363Z,17.80
2018-06-13T08:34:05.091Z,17.60
2018-06-13T08:36:33.803Z,17.10
2018-06-13T08:39:02.327Z,17.00
2018-06-13T08:41:31.188Z,16.80
2018-06-13T08:43:59.866Z,16.80
2018-06-13T08:46:28.621Z,16.80
2018-06-13T08:48:57.391Z,16.80
2018-06-13T08:51:26.064Z,16.90
2018-06-13T08:53:55.105Z,16.90
2018-06-13T08:56:24.154Z,16.90
2018-06-13T08:58:53.109Z,16.70
2018-06-13T09:01:22.162Z,16.60
2018-06-13T09:03:50.651Z,16.70
2018-06-13T09:06:19.039Z,16.80
2018-06-13T09:08:47.231Z,16.90
2018-06-13T09:11:15.716Z,16.90
2018-06-13T09:13:44.029Z,16.90
2018-06-13T09:16:12.300Z,16.80
2018-06-13T09:18:40.605Z,16.70
2018-06-13T09:21:09.204Z,16.70
2018-06-13T09:23:37.531Z,16.90
2018-06-13T09:26:05.806Z,17.00
2018-06-13T09:28:34.881Z,17.00
2018-06-13T09:31:03.523Z,17.10
2018-06-13T09:33:31.880Z,17.30
2018-06-13T09:36:00.583Z,17.30
2018-06-13T09:38:28.808Z,17.30
2018-06-13T09:40:57.622Z,17.30
2018-06-13T09:43:25.868Z,17.40
2018-06-13T09:46:03.271Z,17.40
2018-06-13T09:48:22.400Z,17.30
2018-06-13T09:50:51.476Z,17.30
2018-06-13T09:53:19.857Z,17.30
2018-06-13T09:55:48.193Z,17.40
2018-06-13T09:58:17.043Z,17.60
2018-06-13T10:00:50.668Z,18.00
2018-06-13T10:03:18.859Z,18.30
2018-06-13T10:05:47.227Z,18.80
2018-06-13T10:08:15.501Z,19.60
2018-06-13T10:10:43.786Z,20.30
2018-06-13T10:13:12.043Z,20.90
2018-06-13T10:15:40.243Z,20.90
2018-06-13T10:18:08.483Z,20.80
2018-06-13T10:20:38.017Z,20.80
2018-06-13T10:23:06.510Z,21.00
2018-06-13T10:25:37.108Z,21.00
2018-06-13T10:28:05.413Z,21.10
2018-06-13T10:30:33.728Z,21.10
2018-06-13T10:33:01.935Z,20.50
2018-06-13T10:35:30.543Z,19.90
2018-06-13T10:37:58.784Z,19.10
2018-06-13T10:40:27.779Z,18.70
2018-06-13T10:42:55.967Z,18.40
2018-06-13T10:45:24.183Z,18.10
2018-06-13T10:47:52.435Z,18.00
2018-06-13T10:50:22.264Z,17.90
2018-06-13T10:52:50.545Z,18.10
2018-06-13T10:55:18.768Z,18.30
2018-06-13T10:57:47.189Z,18.70
2018-06-13T11:00:15.425Z,19.40
2018-06-13T11:02:43.840Z,19.40
2018-06-13T11:05:12.076Z,19.40
2018-06-13T11:07:40.672Z,19.50
2018-06-13T11:10:08.949Z,19.70
2018-06-13T11:12:37.139Z,19.70
2018-06-13T11:15:05.452Z,19.70
2018-06-13T11:17:33.678Z,19.90
2018-06-13T11:20:01.914Z,20.10
2018-06-13T11:22:30.140Z,20.20
2018-06-13T11:24:58.323Z,20.60
2018-06-13T11:27:26.529Z,21.00
2018-06-13T11:29:54.977Z,21.10
2018-06-13T11:32:23.294Z,21.10
2018-06-13T11:34:56.887Z,21.50
2018-06-13T11:37:25.444Z,22.40
2018-06-13T11:39:53.948Z,23.10
2018-06-13T11:42:22.204Z,23.10
2018-06-13T11:44:50.450Z,22.80
2018-06-13T11:47:18.980Z,22.40
2018-06-13T11:49:47.245Z,21.80
2018-06-13T11:52:15.430Z,21.70
2018-06-13T11:54:43.792Z,21.00
2018-06-13T11:57:12.013Z,20.50
2018-06-13T11:59:40.249Z,20.20
2018-06-13T12:02:08.469Z,19.90
2018-06-13T12:04:37.073Z,19.70
2018-06-13T12:07:05.303Z,19.80
2018-06-13T12:09:33.675Z,19.90
2018-06-13T12:12:02.064Z,19.70
2018-06-13T12:14:31.017Z,19.70
2018-06-13T12:16:59.276Z,19.90
2018-06-13T12:19:27.559Z,19.80
2018-06-13T12:21:56.560Z,19.90
2018-06-13T12:26:52.853Z,20.20
2018-06-13T12:29:22.778Z,20.40
2018-06-13T12:31:51.051Z,20.70
2018-06-13T12:34:20.228Z,20.80
2018-06-13T12:36:48.765Z,20.80
2018-06-13T12:39:17.253Z,21.00
2018-06-13T12:41:48.366Z,21.00
2018-06-13T12:44:17.229Z,21.10
2018-06-13T12:46:45.795Z,21.00
2018-06-13T12:49:14.819Z,20.80
2018-06-13T12:51:43.234Z,21.00
2018-06-13T12:54:11.780Z,21.10
2018-06-13T12:56:40.161Z,20.90
2018-06-13T12:59:08.473Z,20.50
2018-06-13T13:01:36.684Z,20.20
2018-06-13T13:04:04.979Z,19.60
2018-06-13T13:06:35.116Z,19.50
2018-06-13T13:09:03.861Z,19.20
2018-06-13T13:11:32.085Z,19.30
2018-06-13T13:14:00.494Z,19.20
2018-06-13T13:16:29.179Z,19.20
2018-06-13T13:18:57.738Z,19.40
2018-06-13T13:21:25.948Z,19.60
2018-06-13T13:23:54.176Z,19.70
2018-06-13T13:26:22.372Z,19.70
2018-06-13T13:28:50.894Z,20.00
2018-06-13T13:31:19.070Z,20.10
2018-06-13T13:33:47.287Z,20.10
2018-06-13T13:36:16.045Z,20.00
2018-06-13T13:38:44.793Z,19.70
2018-06-13T13:41:13.047Z,19.40
2018-06-13T13:43:41.364Z,19.00
2018-06-13T13:46:09.579Z,18.50
2018-06-13T13:48:37.775Z,18.20
2018-06-13T13:51:06.765Z,18.10
2018-06-13T13:53:35.628Z,18.10
2018-06-13T13:56:03.840Z,18.00
2018-06-13T13:58:32.082Z,17.90
2018-06-13T14:01:02.208Z,18.10
2018-06-13T14:03:30.422Z,18.30
2018-06-13T14:05:58.607Z,18.50
2018-06-13T14:08:26.823Z,18.80
2018-06-13T14:10:55.079Z,18.90
2018-06-13T14:13:23.268Z,18.90
2018-06-13T14:15:51.471Z,18.90
2018-06-13T14:18:20.069Z,18.90
2018-06-13T14:20:48.371Z,18.80
2018-06-13T14:23:17.087Z,19.00
2018-06-13T14:25:45.271Z,19.00
2018-06-13T14:28:13.730Z,19.00
2018-06-13T14:30:41.948Z,18.90
2018-06-13T14:33:10.128Z,19.00
2018-06-13T14:35:38.389Z,18.90
2018-06-13T14:38:06.568Z,18.80
2018-06-13T14:40:35.158Z,18.70
2018-06-13T14:43:03.533Z,18.70
2018-06-13T14:45:31.993Z,18.90
2018-06-13T14:48:00.266Z,19.10
2018-06-13T14:50:28.618Z,19.20
2018-06-13T14:52:56.927Z,19.10
2018-06-13T14:55:25.253Z,18.90
2018-06-13T14:57:53.444Z,18.70
2018-06-13T15:00:21.706Z,18.60
2018-06-13T15:02:49.947Z,18.40
2018-06-13T15:05:18.359Z,18.30
2018-06-13T15:07:46.665Z,18.20
2018-06-13T15:10:15.688Z,18.00
2018-06-13T15:12:44.345Z,17.80
2018-06-13T15:15:12.961Z,17.70
2018-06-13T15:17:41.152Z,17.70
2018-06-13T15:20:09.417Z,17.80
2018-06-13T15:22:37.605Z,17.80
2018-06-13T15:25:05.894Z,17.80
2018-06-13T15:27:34.102Z,17.70
2018-06-13T15:30:02.288Z,17.50
2018-06-13T15:32:31.588Z,17.40
2018-06-13T15:34:59.827Z,17.30
2018-06-13T15:37:28.060Z,17.30
2018-06-13T15:39:57.447Z,17.30
2018-06-13T16:28:37.748Z,18.70
2018-06-13T16:31:06.161Z,18.70
2018-06-13T16:33:34.874Z,18.80
2018-06-13T16:36:03.356Z,18.80
2018-06-13T16:38:31.592Z,19.00
2018-06-13T16:40:59.898Z,19.20
2018-06-13T16:43:28.131Z,19.10
2018-06-13T16:45:56.380Z,19.00
2018-06-13T16:48:24.580Z,19.00
2018-06-13T16:51:04.220Z,19.00
2018-06-13T16:53:56.950Z,19.10
2018-06-13T16:56:25.467Z,19.30
2018-06-13T16:58:53.959Z,19.40
2018-06-13T17:01:22.644Z,19.30
2018-06-13T17:03:51.112Z,19.40
2018-06-13T17:08:47.451Z,19.30
2018-06-13T17:11:15.699Z,19.30
2018-06-13T17:13:43.943Z,19.20
2018-06-13T17:16:12.661Z,19.00
2018-06-13T17:18:40.891Z,18.80
2018-06-13T17:21:09.116Z,18.70
2018-06-13T17:23:37.623Z,18.60
2018-06-13T17:28:34.329Z,18.40
2018-06-13T17:31:03.121Z,18.20
2018-06-13T17:33:32.299Z,18.10
2018-06-13T17:36:00.544Z,18.00
2018-06-13T17:38:29.118Z,17.80
2018-06-13T17:40:57.989Z,17.60
2018-06-13T17:43:26.311Z,17.50
2018-06-13T17:45:55.088Z,17.30
2018-06-13T17:48:23.271Z,17.30
2018-06-13T17:55:52.795Z,17.20
2018-06-13T17:58:21.069Z,17.10
2018-06-13T18:00:49.415Z,17.00
2018-06-13T18:03:18.581Z,17.00
2018-06-13T18:05:46.806Z,16.90
2018-06-13T18:08:15.057Z,16.90
2018-06-13T18:10:43.324Z,16.90
2018-06-13T18:13:11.607Z,16.90
2018-06-13T18:15:39.813Z,16.80
2018-06-13T18:18:07.996Z,16.80
2018-06-13T18:20:36.203Z,16.70
2018-06-13T18:23:04.469Z,16.60
2018-06-13T18:25:32.671Z,16.50
2018-06-13T18:28:00.883Z,16.40
2018-06-13T18:30:29.199Z,16.30
2018-06-13T18:32:57.419Z,16.20
2018-06-13T18:35:25.674Z,16.20
2018-06-13T18:37:54.162Z,16.10
2018-06-13T18:40:22.439Z,16.10
2018-06-13T18:42:50.676Z,16.00
2018-06-13T18:45:19.015Z,16.00
2018-06-13T18:47:47.240Z,15.90
2018-06-13T18:50:15.833Z,15.90
2018-06-13T18:52:44.065Z,15.80
2018-06-13T18:55:12.307Z,15.80
2018-06-13T18:57:40.681Z,15.70
2018-06-13T19:00:08.940Z,15.70
2018-06-13T19:02:37.233Z,15.60
2018-06-13T19:05:06.619Z,15.60
2018-06-13T19:07:35.070Z,15.50
2018-06-13T19:10:03.340Z,15.50
2018-06-13T19:12:31.580Z,15.40
2018-06-13T19:14:59.879Z,15.30
2018-06-13T19:17:28.159Z,15.40
2018-06-13T19:19:56.383Z,15.40
2018-06-13T19:22:24.730Z,15.40
2018-06-13T19:24:53.082Z,15.40
2018-06-13T19:27:21.306Z,15.30
2018-06-13T19:29:49.797Z,15.30
2018-06-13T19:32:18.191Z,15.30
2018-06-13T19:34:46.670Z,15.30
2018-06-13T19:37:14.981Z,15.20
2018-06-13T19:39:43.245Z,15.10
2018-06-13T19:42:11.520Z,15.10
2018-06-13T19:44:39.825Z,15.00
2018-06-13T19:47:13.442Z,15.10
2018-06-13T19:49:42.874Z,15.10
2018-06-13T19:52:12.163Z,15.00
2018-06-13T19:54:45.759Z,15.00
2018-06-13T19:57:13.996Z,14.90
2018-06-13T19:59:43.328Z,14.90
2018-06-13T20:02:11.568Z,14.90
2018-06-13T20:04:45.056Z,14.80
2018-06-13T20:07:13.292Z,14.80
2018-06-13T20:09:42.318Z,14.80
2018-06-13T20:14:33.143Z,14.70
2018-06-13T20:17:07.104Z,14.70
2018-06-13T20:19:37.971Z,14.60
2018-06-13T20:22:06.227Z,14.70
2018-06-13T20:24:34.490Z,14.70
2018-06-13T20:27:08.233Z,14.60
2018-06-13T20:29:42.072Z,14.60
2018-06-13T20:32:10.458Z,14.60
2018-06-13T20:34:38.908Z,14.60
2018-06-13T20:37:07.210Z,14.50
2018-06-13T20:39:35.450Z,14.50
2018-06-13T20:42:03.699Z,14.50
2018-06-13T20:44:32.273Z,14.40
2018-06-13T20:47:00.615Z,14.40
2018-06-13T20:49:28.830Z,14.30
2018-06-13T20:51:57.060Z,14.20
2018-06-13T20:54:25.584Z,14.10
2018-06-13T20:56:53.858Z,14.00
2018-06-13T20:59:22.259Z,14.00
2018-06-13T21:01:50.555Z,14.00
2018-06-13T21:04:19.045Z,14.00
2018-06-13T21:06:49.650Z,14.00
2018-06-13T21:09:17.908Z,14.00
2018-06-13T21:11:46.504Z,13.90
2018-06-13T21:14:14.814Z,13.90
2018-06-13T21:16:43.066Z,13.90
2018-06-13T21:19:11.315Z,13.80
2018-06-13T21:21:39.575Z,13.80
2018-06-13T21:24:07.763Z,13.80
2018-06-13T21:26:36.025Z,13.80
2018-06-13T21:29:04.198Z,13.70
2018-06-13T21:31:32.422Z,13.70
2018-06-13T21:34:00.692Z,13.70
2018-06-13T21:36:28.900Z,13.80
2018-06-13T21:38:57.230Z,13.80
2018-06-13T21:41:25.503Z,13.70
2018-06-13T21:43:53.889Z,13.70
2018-06-13T21:46:22.154Z,13.70
2018-06-13T21:48:50.463Z,13.70
2018-06-13T21:51:18.766Z,13.70
2018-06-13T21:53:47.062Z,13.70
2018-06-13T21:56:15.393Z,13.70
2018-06-13T21:58:43.829Z,13.70
2018-06-13T22:01:12.525Z,13.60
2018-06-13T22:03:40.843Z,13.60
2018-06-13T22:06:10.962Z,13.60
2018-06-13T22:08:39.835Z,13.60
2018-06-13T22:11:08.233Z,13.50
2018-06-13T22:13:36.857Z,13.50
2018-06-13T22:16:05.123Z,13.50
2018-06-13T22:18:33.362Z,13.50
2018-06-13T22:21:01.620Z,13.50
2018-06-13T22:23:30.187Z,13.50
2018-06-13T22:25:58.789Z,13.50
2018-06-13T22:28:27.703Z,13.50
2018-06-13T22:30:55.957Z,13.50
2018-06-13T22:33:24.176Z,13.50
2018-06-13T22:35:52.407Z,13.50
2018-06-13T22:38:20.608Z,13.50
2018-06-13T22:40:48.889Z,13.50
2018-06-13T22:43:17.247Z,13.50
2018-06-13T22:45:45.785Z,13.50
2018-06-13T22:48:14.133Z,13.50
2018-06-13T22:50:42.475Z,13.50
2018-06-13T22:53:10.805Z,13.50
2018-06-13T22:55:39.842Z,13.40
2018-06-13T22:58:08.255Z,13.40
2018-06-13T23:00:53.627Z,13.40
2018-06-13T23:03:21.912Z,13.40
2018-06-13T23:05:51.031Z,13.40
2018-06-13T23:08:19.270Z,13.40
2018-06-13T23:10:47.463Z,13.30
2018-06-13T23:13:15.728Z,13.40
2018-06-13T23:15:44.007Z,13.30
2018-06-13T23:18:12.249Z,13.40
2018-06-13T23:20:40.448Z,13.30
2018-06-13T23:23:08.720Z,13.40
2018-06-13T23:25:36.977Z,13.30
2018-06-13T23:28:05.592Z,13.30
2018-06-13T23:30:34.207Z,13.30
2018-06-13T23:33:02.457Z,13.30
2018-06-13T23:35:31.258Z,13.30
2018-06-13T23:40:28.217Z,13.30
2018-06-13T23:42:56.760Z,13.30
2018-06-13T23:45:25.216Z,13.30
2018-06-13T23:47:53.636Z,13.30
2018-06-13T23:50:22.031Z,13.20
2018-06-13T23:52:50.316Z,13.20
2018-06-13T23:55:18.626Z,13.20
2018-06-13T23:57:46.943Z,13.20
